createdAt,value
2023-05-03T00:00:09.067Z,0.80
2023-05-03T00:02:39.354Z,0.60
2023-05-03T00:05:09.837Z,0.80
2023-05-03T00:07:36.897Z,0.80
2023-05-03T00:10:04.381Z,0.80
2023-05-03T00:12:31.670Z,1.00
2023-05-03T00:14:58.511Z,0.90
2023-05-03T00:17:25.825Z,1.00
2023-05-03T00:19:55.673Z,1.47
2023-05-03T00:22:23.143Z,0.70
2023-05-03T00:24:51.244Z,0.70
2023-05-03T00:27:18.973Z,1.03
2023-05-03T00:29:46.292Z,0.70
2023-05-03T00:32:13.314Z,0.50
2023-05-03T00:34:40.095Z,0.60
2023-05-03T00:37:06.917Z,0.60
2023-05-03T00:39:33.747Z,0.70
2023-05-03T00:42:01.889Z,0.50
2023-05-03T00:44:28.682Z,0.70
2023-05-03T00:46:56.157Z,0.60
2023-05-03T00:49:26.169Z,0.57
2023-05-03T00:51:59.399Z,0.77
2023-05-03T00:54:30.450Z,0.70
2023-05-03T00:56:58.132Z,0.87
2023-05-03T00:59:26.499Z,0.67
2023-05-03T01:01:53.611Z,0.70
2023-05-03T01:04:24.525Z,0.67
2023-05-03T01:07:23.644Z,0.70
2023-05-03T01:10:18.113Z,0.70
2023-05-03T01:13:06.808Z,0.77
2023-05-03T01:16:01.396Z,0.70
2023-05-03T01:18:32.512Z,0.80
2023-05-03T01:21:00.194Z,0.60
2023-05-03T01:23:32.805Z,0.60
2023-05-03T01:26:00.286Z,0.80
2023-05-03T01:28:27.809Z,0.53
2023-05-03T01:30:57.385Z,0.70
2023-05-03T01:33:31.898Z,0.90
2023-05-03T01:36:26.998Z,0.60
2023-05-03T01:38:53.908Z,0.50
2023-05-03T01:41:21.324Z,0.70
2023-05-03T01:43:48.891Z,0.67
2023-05-03T01:46:16.542Z,0.70
2023-05-03T01:48:44.240Z,0.57
2023-05-03T01:51:11.841Z,0.80
2023-05-03T01:53:39.417Z,0.73
2023-05-03T01:56:08.426Z,0.83
2023-05-03T01:58:35.284Z,0.60
2023-05-03T02:01:05.658Z,0.90
2023-05-03T02:03:32.437Z,0.70
2023-05-03T02:05:59.357Z,0.70
2023-05-03T02:08:26.131Z,0.77
2023-05-03T02:10:53.269Z,0.70
2023-05-03T02:13:20.722Z,0.60
2023-05-03T02:15:48.355Z,0.97
2023-05-03T02:18:16.564Z,0.70
2023-05-03T02:20:46.713Z,0.67
2023-05-03T02:23:13.735Z,0.70
2023-05-03T02:25:41.283Z,1.03
2023-05-03T02:28:08.131Z,0.60
2023-05-03T02:30:35.845Z,0.80
2023-05-03T02:33:02.837Z,0.90
2023-05-03T02:35:30.054Z,0.70
2023-05-03T02:37:57.552Z,0.80
2023-05-03T02:40:25.367Z,0.70
2023-05-03T02:42:52.765Z,0.80
2023-05-03T02:45:20.945Z,0.80
2023-05-03T02:47:48.425Z,0.60
2023-05-03T02:50:15.858Z,0.80
2023-05-03T02:52:43.366Z,0.63
2023-05-03T02:55:11.008Z,0.60
2023-05-03T02:57:40.436Z,0.60
2023-05-03T03:00:14.019Z,0.90
2023-05-03T03:02:41.068Z,0.80
2023-05-03T03:05:11.126Z,0.80
2023-05-03T03:07:38.226Z,0.77
2023-05-03T03:10:05.714Z,0.97
2023-05-03T03:12:33.156Z,0.60
2023-05-03T03:15:00.020Z,0.63
2023-05-03T03:17:26.955Z,0.80
2023-05-03T03:19:54.088Z,0.60
2023-05-03T03:22:21.586Z,0.60
2023-05-03T03:24:49.277Z,0.60
2023-05-03T03:27:16.793Z,0.80
2023-05-03T03:29:44.061Z,0.67
2023-05-03T03:32:11.534Z,0.60
2023-05-03T03:34:38.955Z,0.80
2023-05-03T03:37:06.816Z,1.00
2023-05-03T03:39:34.430Z,0.70
2023-05-03T03:42:02.991Z,0.87
2023-05-03T03:44:29.829Z,0.77
2023-05-03T03:46:57.372Z,0.73
2023-05-03T03:49:27.933Z,0.70
2023-05-03T03:51:54.753Z,0.70
2023-05-03T03:54:21.587Z,0.67
2023-05-03T03:56:48.565Z,0.80
2023-05-03T03:59:16.012Z,0.90
2023-05-03T04:01:43.813Z,1.00
2023-05-03T04:04:11.745Z,0.97
2023-05-03T04:06:39.397Z,0.60
2023-05-03T04:09:07.325Z,0.90
2023-05-03T04:11:35.056Z,0.73
2023-05-03T04:14:03.631Z,0.70
2023-05-03T04:16:31.232Z,1.47
2023-05-03T04:18:58.771Z,1.00
2023-05-03T04:21:27.791Z,0.80
2023-05-03T04:23:55.290Z,0.77
2023-05-03T04:26:31.965Z,0.93
2023-05-03T04:29:00.415Z,0.73
2023-05-03T04:31:28.371Z,0.50
2023-05-03T04:33:59.648Z,0.80
2023-05-03T04:36:26.695Z,0.70
2023-05-03T04:38:54.339Z,0.80
2023-05-03T04:41:21.136Z,0.70
2023-05-03T04:43:48.057Z,0.80
2023-05-03T04:46:17.767Z,0.63
2023-05-03T04:48:46.061Z,0.60
2023-05-03T04:51:13.461Z,0.80
2023-05-03T04:53:40.585Z,0.80
2023-05-03T04:56:07.665Z,0.90
2023-05-03T04:58:34.481Z,0.83
2023-05-03T05:01:01.271Z,0.50
2023-05-03T05:03:33.743Z,0.73
2023-05-03T05:06:01.453Z,0.63
2023-05-03T05:08:28.954Z,0.80
2023-05-03T05:10:56.277Z,0.70
2023-05-03T05:13:23.851Z,3.03
2023-05-03T05:15:51.358Z,0.73
2023-05-03T05:18:18.232Z,0.70
2023-05-03T05:20:45.212Z,0.70
2023-05-03T05:23:12.355Z,0.50
2023-05-03T05:25:40.526Z,0.70
2023-05-03T05:28:07.685Z,0.60
2023-05-03T05:30:35.214Z,0.60
2023-05-03T05:33:03.598Z,0.60
2023-05-03T05:35:30.708Z,0.70
2023-05-03T05:38:01.223Z,0.50
2023-05-03T05:40:28.098Z,0.70
2023-05-03T05:42:55.268Z,0.77
2023-05-03T05:45:23.094Z,0.50
2023-05-03T05:47:50.006Z,0.43
2023-05-03T05:50:18.536Z,0.70
2023-05-03T05:52:46.270Z,0.87
2023-05-03T05:55:14.786Z,0.50
2023-05-03T05:57:41.887Z,0.60
2023-05-03T06:00:15.111Z,0.73
2023-05-03T06:02:42.452Z,0.60
2023-05-03T06:05:10.106Z,0.80
2023-05-03T06:07:37.016Z,0.97
2023-05-03T06:10:05.370Z,0.70
2023-05-03T06:12:32.939Z,1.10
2023-05-03T06:15:03.105Z,0.63
2023-05-03T06:17:30.393Z,0.90
2023-05-03T06:19:58.225Z,0.80
2023-05-03T06:22:25.470Z,0.63
2023-05-03T06:24:52.956Z,0.50
2023-05-03T06:27:21.901Z,0.60
2023-05-03T06:29:50.736Z,0.70
2023-05-03T06:32:19.417Z,0.83
2023-05-03T06:34:47.147Z,0.83
2023-05-03T06:37:14.283Z,0.60
2023-05-03T06:39:41.265Z,0.60
2023-05-03T06:42:08.576Z,0.53
2023-05-03T06:44:36.876Z,0.40
2023-05-03T06:47:04.639Z,0.50
2023-05-03T06:49:32.891Z,0.60
2023-05-03T06:52:00.657Z,0.50
2023-05-03T06:54:27.457Z,0.67
2023-05-03T06:56:57.298Z,0.53
2023-05-03T06:59:24.524Z,0.50
2023-05-03T07:01:51.530Z,0.83
2023-05-03T07:04:18.934Z,0.80
2023-05-03T07:06:55.877Z,0.50
2023-05-03T07:09:35.306Z,1.37
2023-05-03T07:12:08.868Z,0.70
2023-05-03T07:14:35.932Z,0.50
2023-05-03T07:17:03.562Z,0.70
2023-05-03T07:19:33.040Z,0.80
2023-05-03T07:21:59.925Z,0.60
2023-05-03T07:24:27.814Z,0.60
2023-05-03T07:26:54.774Z,0.60
2023-05-03T07:29:21.710Z,0.80
2023-05-03T07:31:49.498Z,0.70
2023-05-03T07:34:17.291Z,0.87
2023-05-03T07:36:44.424Z,1.00
2023-05-03T07:39:11.216Z,0.93
2023-05-03T07:41:38.056Z,0.70
2023-05-03T07:44:05.065Z,0.80
2023-05-03T07:46:35.224Z,0.80
2023-05-03T07:49:03.463Z,0.80
2023-05-03T07:51:33.948Z,1.00
2023-05-03T07:54:01.679Z,0.70
2023-05-03T07:56:28.848Z,0.97
2023-05-03T07:59:08.339Z,0.80
2023-05-03T08:01:36.587Z,0.80
2023-05-03T08:04:04.740Z,0.70
2023-05-03T08:06:32.164Z,1.83
2023-05-03T08:08:59.358Z,0.73
2023-05-03T08:11:28.308Z,0.57
2023-05-03T08:13:57.209Z,1.10
2023-05-03T08:16:24.648Z,0.60
2023-05-03T08:18:51.797Z,0.83
2023-05-03T08:21:19.379Z,0.90
2023-05-03T08:23:46.512Z,0.70
2023-05-03T08:26:14.701Z,0.90
2023-05-03T08:28:42.120Z,1.07
2023-05-03T08:31:09.236Z,0.73
2023-05-03T08:33:36.842Z,0.80
2023-05-03T08:36:03.776Z,0.93
2023-05-03T08:38:31.450Z,0.50
2023-05-03T08:41:04.613Z,1.00
2023-05-03T08:43:31.784Z,2.00
2023-05-03T08:45:59.225Z,0.70
2023-05-03T08:48:27.121Z,1.07
2023-05-03T08:50:57.177Z,0.97
2023-05-03T08:53:24.101Z,0.80
2023-05-03T08:55:50.932Z,0.97
2023-05-03T08:58:17.807Z,0.80
2023-05-03T09:00:45.480Z,0.67
2023-05-03T09:03:13.444Z,0.63
2023-05-03T09:05:43.412Z,0.57
2023-05-03T09:08:13.457Z,0.70
2023-05-03T09:10:41.763Z,0.50
2023-05-03T09:13:09.667Z,0.60
2023-05-03T09:15:37.540Z,0.70
2023-05-03T09:18:13.573Z,0.60
2023-05-03T09:20:41.815Z,0.70
2023-05-03T09:23:09.116Z,0.40
2023-05-03T09:25:46.201Z,0.60
2023-05-03T09:28:14.350Z,0.77
2023-05-03T09:30:42.740Z,0.60
2023-05-03T09:33:10.532Z,0.80
2023-05-03T09:35:45.655Z,0.80
2023-05-03T09:38:26.101Z,0.70
2023-05-03T09:40:54.782Z,0.50
2023-05-03T09:43:21.573Z,0.43
2023-05-03T09:45:48.801Z,0.50
2023-05-03T09:48:16.370Z,1.17
2023-05-03T09:50:44.014Z,0.50
2023-05-03T09:53:11.508Z,0.50
2023-05-03T09:55:39.966Z,0.60
2023-05-03T09:58:07.724Z,0.57
2023-05-03T10:00:42.557Z,0.40
2023-05-03T10:03:11.454Z,0.50
2023-05-03T10:05:48.604Z,0.50
2023-05-03T10:08:34.921Z,0.70
2023-05-03T10:11:05.565Z,0.50
2023-05-03T10:13:32.484Z,0.70
2023-05-03T10:16:14.007Z,0.67
2023-05-03T10:18:58.710Z,0.60
2023-05-03T10:21:38.645Z,0.73
2023-05-03T10:24:17.191Z,0.83
2023-05-03T10:26:47.736Z,1.00
2023-05-03T10:29:46.224Z,0.63
2023-05-03T10:32:29.068Z,0.73
2023-05-03T10:35:03.613Z,0.70
2023-05-03T10:37:32.253Z,0.60
2023-05-03T10:40:11.441Z,0.67
2023-05-03T10:42:44.042Z,0.63
2023-05-03T10:45:22.045Z,0.80
2023-05-03T10:48:11.018Z,0.50
2023-05-03T10:50:42.084Z,0.50
2023-05-03T10:53:09.829Z,0.40
2023-05-03T10:55:38.101Z,0.40
2023-05-03T10:58:04.905Z,0.37
2023-05-03T11:00:41.864Z,0.30
2023-05-03T11:03:26.790Z,0.33
2023-05-03T11:05:54.196Z,0.50
2023-05-03T11:08:22.164Z,0.70
2023-05-03T11:10:51.615Z,0.40
2023-05-03T11:13:18.445Z,0.70
2023-05-03T11:15:46.997Z,0.40
2023-05-03T11:18:15.453Z,0.60
2023-05-03T11:20:42.788Z,0.80
2023-05-03T11:23:14.123Z,0.60
2023-05-03T11:25:41.713Z,0.50
2023-05-03T11:28:08.847Z,0.50
2023-05-03T11:30:35.969Z,0.50
2023-05-03T11:33:04.237Z,0.50
2023-05-03T11:35:32.016Z,0.47
2023-05-03T11:38:00.128Z,0.40
2023-05-03T11:40:27.868Z,0.70
2023-05-03T11:42:59.922Z,0.50
2023-05-03T11:45:32.958Z,1.00
2023-05-03T11:47:59.895Z,0.93
2023-05-03T11:50:28.586Z,0.77
2023-05-03T11:52:56.218Z,0.90
2023-05-03T11:55:23.342Z,0.50
2023-05-03T11:57:51.223Z,0.70
2023-05-03T12:00:18.742Z,0.70
2023-05-03T12:02:48.768Z,0.80
2023-05-03T12:05:16.527Z,0.70
2023-05-03T12:07:44.657Z,0.97
2023-05-03T12:10:23.219Z,0.87
2023-05-03T12:13:00.121Z,0.93
2023-05-03T12:15:33.624Z,0.77
2023-05-03T12:18:04.226Z,0.90
2023-05-03T12:21:28.454Z,0.90
2023-05-03T12:23:19.967Z,1.07
2023-05-03T12:25:49.229Z,0.53
2023-05-03T12:28:20.980Z,0.50
2023-05-03T12:30:49.072Z,0.70
2023-05-03T12:33:17.053Z,1.00
2023-05-03T12:35:47.329Z,0.70
2023-05-03T12:38:16.486Z,1.03
2023-05-03T12:40:45.942Z,1.43
2023-05-03T12:43:13.120Z,1.10
2023-05-03T12:45:41.259Z,1.10
2023-05-03T12:48:09.316Z,1.03
2023-05-03T12:50:38.671Z,1.00
2023-05-03T12:53:09.294Z,1.03
2023-05-03T12:55:42.629Z,1.00
2023-05-03T13:00:49.220Z,1.40
2023-05-03T13:03:32.402Z,1.23
2023-05-03T13:06:01.657Z,0.70
2023-05-03T13:08:35.307Z,0.83
2023-05-03T13:11:02.573Z,0.83
2023-05-03T13:13:30.372Z,0.80
2023-05-03T13:15:58.183Z,0.70
2023-05-03T13:18:26.043Z,0.67
2023-05-03T13:20:52.950Z,0.60
2023-05-03T13:23:19.830Z,1.03
2023-05-03T13:25:47.333Z,0.80
2023-05-03T13:28:14.225Z,1.03
2023-05-03T13:30:41.285Z,1.17
2023-05-03T13:33:08.444Z,5.60
2023-05-03T13:35:35.308Z,8.80
2023-05-03T13:38:02.364Z,10.77
2023-05-03T13:40:30.090Z,10.73
2023-05-03T13:42:56.856Z,7.93
2023-05-03T13:45:23.701Z,5.93
2023-05-03T13:50:21.365Z,6.37
2023-05-03T13:52:49.116Z,7.37
2023-05-03T13:55:15.952Z,8.43
2023-05-03T13:57:43.799Z,3.93
2023-05-03T14:00:11.361Z,6.63
2023-05-03T14:02:38.272Z,3.07
2023-05-03T14:05:06.865Z,3.80
2023-05-03T14:07:34.500Z,3.80
2023-05-03T14:10:02.237Z,4.60
2023-05-03T14:12:29.828Z,5.27
2023-05-03T14:14:57.433Z,2.77
2023-05-03T14:17:24.361Z,3.60
2023-05-03T14:19:52.346Z,5.63
2023-05-03T14:22:19.364Z,6.17
2023-05-03T14:24:47.002Z,2.27
2023-05-03T14:27:14.880Z,3.17
2023-05-03T14:29:42.185Z,6.77
2023-05-03T14:32:09.027Z,4.57
2023-05-03T14:34:36.864Z,5.27
2023-05-03T14:37:04.648Z,4.90
2023-05-03T14:39:31.562Z,5.37
2023-05-03T14:41:58.363Z,3.37
2023-05-03T14:44:26.792Z,3.90
2023-05-03T14:46:54.333Z,3.50
2023-05-03T14:49:22.359Z,2.90
2023-05-03T14:51:52.844Z,3.20
2023-05-03T14:54:23.174Z,2.77
2023-05-03T14:56:50.610Z,2.33
2023-05-03T14:59:17.655Z,2.50
2023-05-03T15:01:45.269Z,2.47
2023-05-03T15:04:12.100Z,3.33
2023-05-03T15:06:39.558Z,2.53
2023-05-03T15:09:08.532Z,4.27
2023-05-03T15:11:35.611Z,3.90
2023-05-03T15:14:05.165Z,3.10
2023-05-03T15:16:32.058Z,2.47
2023-05-03T15:19:01.120Z,2.93
2023-05-03T15:21:28.705Z,3.20
2023-05-03T15:23:56.497Z,3.23
2023-05-03T15:26:24.575Z,3.33
2023-05-03T15:28:52.117Z,3.30
2023-05-03T15:31:19.553Z,3.10
2023-05-03T15:33:46.727Z,3.27
2023-05-03T15:36:16.678Z,3.30
2023-05-03T15:38:44.874Z,3.20
2023-05-03T15:41:11.782Z,3.40
2023-05-03T15:43:38.702Z,4.60
2023-05-03T15:46:05.721Z,3.77
2023-05-03T15:48:32.679Z,4.20
2023-05-03T15:50:59.552Z,3.93
2023-05-03T15:53:27.281Z,3.00
2023-05-03T15:55:58.106Z,3.20
2023-05-03T15:58:25.724Z,3.70
2023-05-03T16:00:52.547Z,3.40
2023-05-03T16:03:19.580Z,2.97
2023-05-03T16:05:46.920Z,3.07
2023-05-03T16:08:16.959Z,2.60
2023-05-03T16:10:44.088Z,2.30
2023-05-03T16:13:11.945Z,2.90
2023-05-03T16:15:41.966Z,3.30
2023-05-03T16:18:10.219Z,3.10
2023-05-03T16:20:38.094Z,3.10
2023-05-03T16:23:09.550Z,3.00
2023-05-03T16:25:38.877Z,3.90
2023-05-03T16:28:05.678Z,3.03
2023-05-03T16:30:33.649Z,3.50
2023-05-03T16:33:02.399Z,3.50
2023-05-03T16:35:31.019Z,3.30
2023-05-03T16:37:58.015Z,3.27
2023-05-03T16:40:25.141Z,3.80
2023-05-03T16:42:52.142Z,3.40
2023-05-03T16:45:23.242Z,3.10
2023-05-03T16:47:52.039Z,3.13
2023-05-03T16:50:20.260Z,3.50
2023-05-03T16:52:47.809Z,3.67
2023-05-03T16:55:22.948Z,4.77
2023-05-03T16:57:50.852Z,6.90
2023-05-03T17:00:18.228Z,6.40
2023-05-03T17:02:45.633Z,8.03
2023-05-03T17:05:13.229Z,6.87
2023-05-03T17:07:42.005Z,5.37
2023-05-03T17:10:14.135Z,5.57
2023-05-03T17:12:45.989Z,5.27
2023-05-03T17:15:16.343Z,4.87
2023-05-03T17:17:49.680Z,5.00
2023-05-03T17:20:16.699Z,4.73
2023-05-03T17:22:44.183Z,4.47
2023-05-03T17:25:12.198Z,5.17
2023-05-03T17:27:39.006Z,4.33
2023-05-03T17:30:06.874Z,4.60
2023-05-03T17:32:33.909Z,3.70
2023-05-03T17:35:00.794Z,5.30
2023-05-03T17:37:33.028Z,7.90
2023-05-03T17:40:01.450Z,6.40
2023-05-03T17:42:29.181Z,5.17
2023-05-03T17:44:56.117Z,4.70
2023-05-03T17:47:25.189Z,4.50
2023-05-03T17:49:52.765Z,4.60
2023-05-03T17:52:19.615Z,3.87
2023-05-03T17:54:46.517Z,4.07
2023-05-03T17:57:13.459Z,6.90
2023-05-03T17:59:40.830Z,3.37
2023-05-03T18:02:10.451Z,4.10
2023-05-03T18:04:40.419Z,3.87
2023-05-03T18:07:10.270Z,4.50
2023-05-03T18:09:38.091Z,3.77
2023-05-03T18:12:05.149Z,3.70
2023-05-03T18:14:38.688Z,4.73
2023-05-03T18:17:06.261Z,3.90
2023-05-03T18:19:33.159Z,3.60
2023-05-03T18:22:00.018Z,3.30
2023-05-03T18:24:27.372Z,3.57
2023-05-03T18:26:54.837Z,3.97
2023-05-03T18:29:21.802Z,5.70
2023-05-03T18:31:49.340Z,4.60
2023-05-03T18:34:16.620Z,3.70
2023-05-03T18:36:44.441Z,3.50
2023-05-03T18:39:11.404Z,4.00
2023-05-03T18:41:38.431Z,4.40
2023-05-03T18:44:05.404Z,3.63
2023-05-03T18:46:32.288Z,4.37
2023-05-03T18:48:59.539Z,5.07
2023-05-03T18:51:27.403Z,5.10
2023-05-03T18:53:54.525Z,4.37
2023-05-03T18:56:21.676Z,4.03
2023-05-03T18:58:49.124Z,4.17
2023-05-03T19:01:16.719Z,4.10
2023-05-03T19:03:43.569Z,5.00
2023-05-03T19:06:11.456Z,4.93
2023-05-03T19:08:38.312Z,3.77
2023-05-03T19:11:12.829Z,4.57
2023-05-03T19:13:39.913Z,4.17
2023-05-03T19:16:07.747Z,4.00
2023-05-03T19:18:41.777Z,3.83
2023-05-03T19:21:08.941Z,4.40
2023-05-03T19:23:36.648Z,4.00
2023-05-03T19:26:03.671Z,3.93
2023-05-03T19:28:31.770Z,3.97
2023-05-03T19:31:02.540Z,3.73
2023-05-03T19:33:29.777Z,3.57
2023-05-03T19:35:57.404Z,3.63
2023-05-03T19:38:24.389Z,3.03
2023-05-03T19:40:58.915Z,3.37
2023-05-03T19:43:25.972Z,3.53
2023-05-03T19:45:53.021Z,3.33
2023-05-03T19:48:19.973Z,3.43
2023-05-03T19:50:47.639Z,2.80
2023-05-03T19:53:17.391Z,3.87
2023-05-03T19:56:00.080Z,3.73
2023-05-03T19:58:27.354Z,4.10
2023-05-03T20:00:54.281Z,3.60
2023-05-03T20:03:22.974Z,3.87
2023-05-03T20:05:50.115Z,3.90
2023-05-03T20:08:17.226Z,5.03
2023-05-03T20:10:46.426Z,4.27
2023-05-03T20:13:13.691Z,4.43
2023-05-03T20:15:41.375Z,4.33
2023-05-03T20:18:08.563Z,4.03
2023-05-03T20:20:35.446Z,4.03
2023-05-03T20:23:03.286Z,4.00
2023-05-03T20:25:30.145Z,2.90
2023-05-03T20:27:57.229Z,3.60
2023-05-03T20:30:25.112Z,3.60
2023-05-03T20:32:52.103Z,3.57
2023-05-03T20:35:19.543Z,3.30
2023-05-03T20:37:47.116Z,2.90
2023-05-03T20:40:14.813Z,2.80
2023-05-03T20:42:42.526Z,4.07
2023-05-03T20:45:10.267Z,2.97
2023-05-03T20:47:37.149Z,3.27
2023-05-03T20:50:04.841Z,3.80
2023-05-03T20:52:31.826Z,3.13
2023-05-03T20:55:01.995Z,3.43
2023-05-03T20:57:28.835Z,3.07
2023-05-03T20:59:55.854Z,2.70
2023-05-03T21:02:23.712Z,2.90
2023-05-03T21:04:51.442Z,3.13
2023-05-03T21:07:21.312Z,3.40
2023-05-03T21:09:48.157Z,3.40
2023-05-03T21:12:15.666Z,2.90
2023-05-03T21:14:43.313Z,3.13
2023-05-03T21:17:12.380Z,3.20
2023-05-03T21:19:39.978Z,3.23
2023-05-03T21:22:11.545Z,3.83
2023-05-03T21:24:38.871Z,2.93
2023-05-03T21:27:06.541Z,3.73
2023-05-03T21:29:33.480Z,3.13
2023-05-03T21:32:00.375Z,4.00
2023-05-03T21:34:27.280Z,3.63
2023-05-03T21:36:54.134Z,3.40
2023-05-03T21:39:22.671Z,3.60
2023-05-03T21:41:49.688Z,2.97
2023-05-03T21:44:16.575Z,4.90
2023-05-03T21:46:43.419Z,3.40
2023-05-03T21:49:10.965Z,3.37
2023-05-03T21:51:37.792Z,4.20
2023-05-03T21:54:04.821Z,4.43
2023-05-03T21:56:31.892Z,3.53
2023-05-03T21:58:59.741Z,3.23
2023-05-03T22:01:26.601Z,3.30
2023-05-03T22:03:53.563Z,3.70
2023-05-03T22:06:21.738Z,3.17
2023-05-03T22:08:49.323Z,4.00
2023-05-03T22:11:16.873Z,3.10
2023-05-03T22:14:03.108Z,3.40
2023-05-03T22:16:31.517Z,4.07
2023-05-03T22:18:58.828Z,3.30
2023-05-03T22:21:26.414Z,3.47
2023-05-03T22:23:54.477Z,3.57
2023-05-03T22:26:21.274Z,2.87
2023-05-03T22:28:48.079Z,2.90
2023-05-03T22:31:14.933Z,3.27
2023-05-03T22:33:44.952Z,2.87
2023-05-03T22:36:12.466Z,2.90
2023-05-03T22:38:42.589Z,2.57
2023-05-03T22:41:10.065Z,2.80
2023-05-03T22:43:37.120Z,2.83
2023-05-03T22:46:04.336Z,2.90
2023-05-03T22:48:32.737Z,3.30
2023-05-03T22:51:00.318Z,3.17
2023-05-03T22:53:27.230Z,2.70
2023-05-03T22:56:01.677Z,2.50
2023-05-03T22:58:28.818Z,3.80
2023-05-03T23:00:55.903Z,2.73
2023-05-03T23:03:23.415Z,3.13
2023-05-03T23:05:54.733Z,3.07
2023-05-03T23:08:21.662Z,2.93
2023-05-03T23:10:48.576Z,2.77
2023-05-03T23:13:15.567Z,2.60
2023-05-03T23:15:42.481Z,3.23
2023-05-03T23:18:09.448Z,3.10
2023-05-03T23:20:36.691Z,3.20
2023-05-03T23:23:03.571Z,2.90
2023-05-03T23:25:30.731Z,3.07
2023-05-03T23:27:58.459Z,3.33
2023-05-03T23:30:27.127Z,3.10
2023-05-03T23:32:55.475Z,3.13
2023-05-03T23:35:23.435Z,2.90
2023-05-03T23:37:50.205Z,3.13
2023-05-03T23:40:17.078Z,2.97
2023-05-03T23:42:46.339Z,3.20
2023-05-03T23:45:13.325Z,2.93
2023-05-03T23:47:40.141Z,3.10
2023-05-03T23:50:07.819Z,2.83
2023-05-03T23:52:34.786Z,2.83
2023-05-03T23:55:02.709Z,3.30
2023-05-03T23:57:30.187Z,3.93
2023-05-03T23:59:57.163Z,3.40
